Time;durP1;ratioP1;P1;durP2;ratioP2;P2;SDS_P1;SDS_P2;PMS_P1;PMS_P2;Temp;Humidity;BMP_temperature;BMP_pressure;BME280_temperature;BME280_humidity;BME280_pressure;Samples;Min_cycle;Max_cycle;Signal;HPM_P1;HPM_P2
2022/06/15 00:00:23;;;;;;;9.87;6.40;;;;;;;12.53;81.19;101803.56;5054197;28;20414;-82
2022/06/15 00:02:49;;;;;;;10.63;6.50;;;;;;;12.43;80.70;101790.31;5054681;28;20037;-83
2022/06/15 00:05:14;;;;;;;10.67;6.67;;;;;;;12.44;81.95;101803.72;5055624;28;20112;-82
2022/06/15 00:07:39;;;;;;;9.20;6.73;;;;;;;12.50;81.90;101804.78;5055324;28;20500;-82
2022/06/15 00:10:06;;;;;;;12.77;6.70;;;;;;;12.41;82.33;101804.09;5059876;28;20048;-82
2022/06/15 00:12:31;;;;;;;9.87;6.70;;;;;;;12.36;81.56;101808.47;5056506;28;20071;-82
2022/06/15 00:14:56;;;;;;;11.27;6.83;;;;;;;12.35;80.99;101804.91;5055063;28;20488;-83
2022/06/15 00:17:22;;;;;;;11.40;6.93;;;;;;;12.31;80.66;101796.31;5051102;28;20029;-82
2022/06/15 00:19:47;;;;;;;11.37;6.70;;;;;;;12.30;80.81;101797.34;5058609;28;20115;-83
2022/06/15 00:22:12;;;;;;;11.73;7.13;;;;;;;12.19;81.60;101794.38;5071109;28;20067;-83
2022/06/15 00:24:38;;;;;;;10.37;7.07;;;;;;;12.21;82.84;101795.84;5056826;28;20039;-82
2022/06/15 00:27:03;;;;;;;13.50;7.50;;;;;;;12.14;83.19;101794.94;5058967;28;20380;-82
2022/06/15 00:29:30;;;;;;;11.43;7.43;;;;;;;11.95;83.53;101783.78;5060064;28;20412;-82
2022/06/15 00:31:56;;;;;;;10.40;7.20;;;;;;;11.93;83.57;101782.25;5049347;28;20017;-82
2022/06/15 00:34:21;;;;;;;14.73;7.37;;;;;;;11.92;83.58;101786.84;5058391;28;20103;-83
2022/06/15 00:36:47;;;;;;;9.20;7.20;;;;;;;11.92;83.65;101786.84;5058603;28;20442;-82
2022/06/15 00:39:12;;;;;;;10.43;7.00;;;;;;;11.87;83.67;101785.75;5056349;28;20143;-83
2022/06/15 00:41:38;;;;;;;10.27;7.20;;;;;;;11.85;83.42;101785.94;5071459;28;20024;-82
2022/06/15 00:44:19;;;;;;;10.40;7.37;;;;;;;11.83;83.51;101783.44;5053114;28;20418;-82
2022/06/15 00:46:51;;;;;;;13.10;7.37;;;;;;;11.77;84.04;101792.34;5058075;28;20044;-82
2022/06/15 00:49:24;;;;;;;18.47;8.33;;;;;;;11.70;84.71;101782.50;5053437;28;20033;-82
2022/06/15 00:51:54;;;;;;;13.50;7.60;;;;;;;11.81;85.16;101779.25;5017383;28;20110;-82
2022/06/15 00:54:21;;;;;;;12.73;7.73;;;;;;;11.69;84.94;101783.53;5051510;28;20021;-82
2022/06/15 00:56:47;;;;;;;11.77;7.63;;;;;;;11.68;85.33;101781.84;5059930;28;20032;-82
2022/06/15 00:59:19;;;;;;;9.77;7.63;;;;;;;11.69;85.04;101783.53;5064954;28;20041;-82
2022/06/15 01:01:45;;;;;;;13.03;7.57;;;;;;;11.70;84.21;101777.06;5037766;28;20016;-82
2022/06/15 01:04:12;;;;;;;13.03;7.70;;;;;;;11.68;84.46;101773.69;5036121;28;20095;-83
2022/06/15 01:06:56;;;;;;;10.50;7.10;;;;;;;11.71;84.53;101774.16;5051637;28;20095;-82
2022/06/15 01:09:25;;;;;;;11.15;7.32;;;;;;;11.69;84.11;101775.38;5034369;28;20103;-82
2022/06/15 01:12:08;;;;;;;12.53;7.43;;;;;;;11.66;84.76;101777.44;5052402;28;20033;-82
2022/06/15 01:15:01;;;;;;;16.47;7.50;;;;;;;11.70;84.58;101777.91;5051555;28;20027;-82
2022/06/15 01:17:49;;;;;;;12.37;7.27;;;;;;;11.64;84.72;101767.81;5039470;28;20029;-82
2022/06/15 01:20:15;;;;;;;13.37;6.90;;;;;;;11.76;85.01;101770.84;5055446;28;20074;-82
2022/06/15 01:22:40;;;;;;;10.07;7.00;;;;;;;11.74;84.71;101767.50;5063228;28;20053;-82
2022/06/15 01:25:27;;;;;;;10.77;5.93;;;;;;;11.75;84.56;101766.44;5053894;28;20067;-82
2022/06/15 01:28:01;;;;;;;9.87;6.13;;;;;;;11.74;84.48;101768.31;5053813;28;20448;-82
2022/06/15 01:30:45;;;;;;;10.93;6.25;;;;;;;11.71;84.36;101771.44;5052647;28;20040;-82
2022/06/15 01:33:17;;;;;;;10.30;5.80;;;;;;;11.70;84.24;101772.47;5050780;28;20028;-82
2022/06/15 01:35:52;;;;;;;9.60;6.00;;;;;;;11.72;84.19;101769.56;5051352;28;20124;-82
2022/06/15 01:38:28;;;;;;;9.07;5.70;;;;;;;11.76;83.50;101768.13;5059072;28;20025;-82
2022/06/15 01:41:26;;;;;;;9.63;6.00;;;;;;;11.76;83.84;101763.56;5063429;28;20029;-82
2022/06/15 01:44:10;;;;;;;11.37;6.10;;;;;;;11.74;84.38;101762.06;5073961;28;20107;-82
2022/06/15 01:46:39;;;;;;;8.43;5.90;;;;;;;11.69;83.81;101759.09;5062684;28;20025;-83
2022/06/15 01:49:08;;;;;;;10.67;6.40;;;;;;;11.53;84.30;101761.03;5053315;28;20067;-82
2022/06/15 01:51:39;;;;;;;9.77;6.37;;;;;;;11.59;85.26;101762.97;5051011;28;20025;-82
2022/06/15 01:54:09;;;;;;;9.87;6.53;;;;;;;11.45;84.91;101763.88;5051018;28;20028;-82
2022/06/15 01:56:40;;;;;;;10.00;6.10;;;;;;;11.36;84.94;101760.50;5050419;28;20025;-83
2022/06/15 01:59:20;;;;;;;8.47;6.30;;;;;;;11.40;85.35;101761.78;5051588;28;20056;-82
2022/06/15 02:01:57;;;;;;;9.37;6.10;;;;;;;11.46;84.97;101760.16;5051679;28;20021;-82
2022/06/15 02:04:32;;;;;;;11.57;6.90;;;;;;;11.38;85.67;101763.84;5036175;28;20060;-82
2022/06/15 02:07:18;;;;;;;9.33;6.50;;;;;;;11.33;85.58;101750.03;5049096;28;20048;-82
2022/06/15 02:10:24;;;;;;;8.60;6.33;;;;;;;11.38;85.34;101749.44;5069780;28;20070;-82
2022/06/15 02:12:56;;;;;;;8.87;6.50;;;;;;;11.18;85.59;101750.09;4999854;28;20128;-82
2022/06/15 02:15:27;;;;;;;10.17;6.67;;;;;;;11.04;85.91;101730.13;5011072;28;20042;-82
2022/06/15 02:17:54;;;;;;;10.47;6.60;;;;;;;11.03;86.16;101742.03;5014712;28;20033;-82
2022/06/15 02:20:28;;;;;;;11.53;6.83;;;;;;;11.04;86.38;101743.69;5031400;28;20436;-82
2022/06/15 02:23:01;;;;;;;8.98;6.57;;;;;;;11.07;86.31;101739.75;5056030;28;20048;-83
2022/06/15 02:25:32;;;;;;;15.80;6.53;;;;;;;11.05;86.67;101739.94;5052639;28;20032;-82
2022/06/15 02:28:00;;;;;;;9.87;6.70;;;;;;;11.04;86.78;101730.13;5051510;28;20465;-82
2022/06/15 02:30:27;;;;;;;9.00;6.30;;;;;;;11.08;86.71;101736.00;5051340;28;20036;-82
2022/06/15 02:32:53;;;;;;;7.73;6.33;;;;;;;11.10;86.56;101733.97;5049954;28;20465;-82
2022/06/15 02:35:20;;;;;;;11.17;6.77;;;;;;;10.93;87.18;101723.38;5052030;28;23058;-82
2022/06/15 02:37:47;;;;;;;10.60;6.13;;;;;;;10.96;87.18;101738.38;5052943;28;20408;-82
2022/06/15 02:40:16;;;;;;;10.27;6.70;;;;;;;10.96;87.53;101732.97;5018425;28;20393;-82
2022/06/15 02:42:41;;;;;;;11.47;6.80;;;;;;;10.87;87.41;101731.44;5048564;28;20029;-83
2022/06/15 02:45:10;;;;;;;9.90;6.67;;;;;;;10.91;87.93;101730.00;5068437;28;20032;-82
2022/06/15 02:47:40;;;;;;;9.20;6.63;;;;;;;10.73;87.29;101715.00;5057543;28;20023;-81
2022/06/15 02:50:07;;;;;;;8.90;6.17;;;;;;;11.00;87.30;101733.41;5055546;28;20338;-82
2022/06/15 02:52:38;;;;;;;11.97;6.30;;;;;;;11.06;87.34;101738.91;5037972;28;20045;-82
2022/06/15 02:55:05;;;;;;;9.10;6.60;;;;;;;10.97;87.40;101730.09;5069000;28;20024;-82
2022/06/15 02:57:41;;;;;;;10.87;6.30;;;;;;;10.89;87.32;101730.22;5068427;28;20044;-82
2022/06/15 03:00:07;;;;;;;8.73;6.10;;;;;;;10.91;87.15;101725.41;5055601;28;20082;-82
2022/06/15 03:02:32;;;;;;;11.10;6.10;;;;;;;10.97;87.24;101724.66;5048407;28;20033;-82
2022/06/15 03:04:58;;;;;;;7.80;6.20;;;;;;;10.94;86.73;101727.72;5036716;28;20187;-82
2022/06/15 03:07:25;;;;;;;10.63;6.30;;;;;;;11.03;86.50;101722.19;5053256;28;20107;-83
2022/06/15 03:09:51;;;;;;;9.17;6.67;;;;;;;10.86;86.81;101719.72;5055324;28;20123;-82
2022/06/15 03:12:16;;;;;;;9.80;6.90;;;;;;;10.87;87.48;101723.28;5058756;28;20056;-82
2022/06/15 03:14:42;;;;;;;9.33;6.53;;;;;;;10.91;87.39;101713.75;5059605;28;20491;-82
2022/06/15 03:17:07;;;;;;;10.37;6.40;;;;;;;10.88;86.94;101725.81;5059446;28;20439;-82
2022/06/15 03:19:33;;;;;;;8.93;6.80;;;;;;;10.81;87.23;101724.88;5039397;28;20060;-82
2022/06/15 03:21:58;;;;;;;8.47;6.37;;;;;;;10.89;87.80;101729.34;5054539;28;20086;-83
2022/06/15 03:24:25;;;;;;;10.50;6.63;;;;;;;10.75;87.43;101725.66;5056335;28;20040;-82
2022/06/15 03:26:50;;;;;;;9.03;6.70;;;;;;;10.70;88.00;101722.69;5076021;28;20020;-82
2022/06/15 03:29:15;;;;;;;11.60;6.87;;;;;;;10.70;88.23;101728.91;5075744;28;20089;-82
2022/06/15 03:31:41;;;;;;;11.93;6.80;;;;;;;10.45;88.14;101687.78;5064079;28;20032;-83
2022/06/15 03:34:06;;;;;;;11.60;7.00;;;;;;;10.68;89.08;101724.75;5041814;28;20385;-83
2022/06/15 03:36:31;;;;;;;10.93;7.20;;;;;;;10.74;88.83;101726.69;5052904;28;20047;-82
2022/06/15 03:38:57;;;;;;;15.20;7.07;;;;;;;10.57;88.89;101718.78;5059199;28;20078;-82
2022/06/15 03:41:23;;;;;;;13.17;7.07;;;;;;;10.60;89.47;101720.28;5037130;28;20044;-82
2022/06/15 03:43:48;;;;;;;13.83;6.57;;;;;;;10.68;88.74;101719.34;5053968;28;20071;-83
2022/06/15 03:46:14;;;;;;;13.47;6.67;;;;;;;10.70;89.39;101718.06;5058095;28;20112;-82
2022/06/15 03:48:39;;;;;;;11.20;6.80;;;;;;;10.58;89.17;101734.03;5052779;28;20383;-82
2022/06/15 03:51:05;;;;;;;13.17;7.20;;;;;;;10.59;89.48;101732.13;5050974;28;20024;-82
2022/06/15 03:53:30;;;;;;;13.37;7.10;;;;;;;10.63;89.36;101734.28;5049256;28;20431;-82
2022/06/15 03:55:55;;;;;;;9.67;6.37;;;;;;;10.64;89.67;101732.41;5051019;28;20036;-82
2022/06/15 03:58:21;;;;;;;11.87;7.00;;;;;;;10.64;89.30;101741.38;5050927;28;20049;-82
2022/06/15 04:00:48;;;;;;;10.87;6.73;;;;;;;10.60;89.45;101729.22;5038641;28;20850;-82
2022/06/15 04:03:13;;;;;;;11.03;7.13;;;;;;;10.59;89.33;101729.44;5052352;28;20033;-82
2022/06/15 04:05:49;;;;;;;10.20;6.97;;;;;;;10.64;89.79;101730.53;5054034;28;20035;-82
2022/06/15 04:08:35;;;;;;;14.87;7.37;;;;;;;10.59;90.39;101722.16;5056247;28;20124;-82
2022/06/15 04:11:58;;;;;;;12.90;7.40;;;;;;;10.70;89.99;101731.63;5051477;28;20033;-82
2022/06/15 04:13:57;;;;;;;13.97;7.43;;;;;;;10.75;89.63;101739.22;5052786;28;20425;-82
2022/06/15 04:16:23;;;;;;;11.77;7.20;;;;;;;10.73;89.52;101728.56;5051490;28;20063;-82
2022/06/15 04:18:48;;;;;;;12.67;7.37;;;;;;;10.71;89.89;101729.78;5036440;28;20036;-82
2022/06/15 04:21:13;;;;;;;13.17;7.30;;;;;;;10.74;89.92;101738.38;5054061;28;20033;-82
2022/06/15 04:23:39;;;;;;;11.37;7.27;;;;;;;10.82;89.94;101734.69;5068051;28;20079;-82
2022/06/15 04:26:04;;;;;;;10.20;7.00;;;;;;;10.88;89.86;101736.66;5055129;28;20037;-82
2022/06/15 04:28:32;;;;;;;15.20;7.87;;;;;;;10.87;89.58;101713.28;5066344;28;20028;-82
2022/06/15 04:30:57;;;;;;;12.17;7.13;;;;;;;11.01;89.36;101730.50;5055323;28;20029;-83
2022/06/15 04:33:24;;;;;;;13.67;7.23;;;;;;;11.16;89.28;101735.88;5056439;28;20036;-82
2022/06/15 04:35:50;;;;;;;12.17;7.33;;;;;;;11.17;89.09;101728.59;5059682;28;20025;-82
2022/06/15 04:38:15;;;;;;;14.70;7.77;;;;;;;11.29;88.73;101736.00;5054099;28;20432;-82
2022/06/15 04:40:41;;;;;;;11.20;7.70;;;;;;;11.31;88.07;101725.81;5051385;28;20033;-82
2022/06/15 04:43:08;;;;;;;13.83;7.93;;;;;;;11.38;88.32;101715.03;5056079;28;20055;-83
2022/06/15 04:45:35;;;;;;;13.20;7.97;;;;;;;11.51;88.97;101724.31;5054936;28;20103;-82
2022/06/15 04:48:00;;;;;;;13.63;7.37;;;;;;;11.57;87.96;101728.94;5057910;28;20043;-82
2022/06/15 04:50:26;;;;;;;16.63;7.87;;;;;;;11.65;87.61;101726.06;5066379;28;20032;-82
2022/06/15 04:52:51;;;;;;;14.67;7.83;;;;;;;11.70;87.58;101726.31;5063886;28;20028;-82
2022/06/15 04:55:20;;;;;;;13.37;7.90;;;;;;;11.83;87.33;101733.69;5067907;28;20116;-82
2022/06/15 04:57:46;;;;;;;12.77;7.43;;;;;;;11.90;86.31;101740.03;5054503;28;20025;-82
2022/06/15 05:00:15;;;;;;;10.53;7.47;;;;;;;12.03;87.35;101744.72;5057469;28;20029;-83
2022/06/15 05:02:41;;;;;;;15.93;7.57;;;;;;;12.08;86.79;101736.84;5061089;28;20021;-82
2022/06/15 05:05:06;;;;;;;14.50;7.90;;;;;;;12.19;86.56;101740.03;5053912;28;20526;-82
2022/06/15 05:07:32;;;;;;;15.67;7.57;;;;;;;12.26;86.86;101744.44;5053303;28;20056;-82
2022/06/15 05:09:57;;;;;;;12.70;7.90;;;;;;;12.35;86.14;101741.56;5053670;28;20483;-82
2022/06/15 05:12:23;;;;;;;11.80;7.10;;;;;;;12.42;85.25;101748.72;5054070;28;20052;-82
2022/06/15 05:14:49;;;;;;;13.33;7.07;;;;;;;12.52;84.81;101747.50;5035940;28;20507;-82
2022/06/15 05:17:17;;;;;;;11.87;7.57;;;;;;;12.60;84.17;101745.44;5055007;28;20021;-82
2022/06/15 05:19:42;;;;;;;13.20;7.33;;;;;;;12.69;84.27;101743.38;5039140;28;20029;-82
2022/06/15 05:22:08;;;;;;;13.63;7.70;;;;;;;12.76;84.35;101743.41;5036586;28;20090;-82
2022/06/15 05:24:33;;;;;;;15.00;7.40;;;;;;;12.82;84.30;101734.41;5052244;28;20115;-83
2022/06/15 05:26:59;;;;;;;13.43;7.43;;;;;;;12.99;85.28;101741.16;5035693;28;20051;-83
2022/06/15 05:29:25;;;;;;;14.70;8.20;;;;;;;13.10;84.60;101741.63;5052248;28;20039;-82
2022/06/15 05:31:51;;;;;;;13.23;8.00;;;;;;;13.14;84.69;101740.16;5052105;28;20055;-82
2022/06/15 05:34:16;;;;;;;13.33;7.90;;;;;;;13.29;84.85;101743.50;5054172;28;20036;-82
2022/06/15 05:36:42;;;;;;;13.43;8.07;;;;;;;13.37;84.63;101734.34;5063790;28;20090;-82
2022/06/15 05:39:09;;;;;;;13.40;7.83;;;;;;;13.53;83.46;101754.03;5053049;28;20457;-82
2022/06/15 05:41:35;;;;;;;13.67;8.20;;;;;;;13.62;84.49;101747.31;5054496;28;20429;-82
2022/06/15 05:44:01;;;;;;;13.83;8.57;;;;;;;13.72;83.26;101746.91;5069337;28;20108;-82
2022/06/15 05:46:33;;;;;;;16.50;8.40;;;;;;;13.78;84.49;101744.16;5051557;28;20464;-82
2022/06/15 05:49:01;;;;;;;17.30;8.13;;;;;;;13.98;83.71;101749.59;5068620;28;20094;-83
2022/06/15 05:51:28;;;;;;;10.07;6.97;;;;;;;14.09;81.44;101752.69;5043940;28;20101;-83
2022/06/15 05:53:54;;;;;;;14.43;7.73;;;;;;;14.23;80.87;101748.91;5021602;28;20758;-82
2022/06/15 05:56:20;;;;;;;12.77;6.87;;;;;;;14.18;80.14;101724.16;5041107;28;20045;-82
2022/06/15 05:58:46;;;;;;;13.00;7.23;;;;;;;14.43;79.03;101745.25;5039631;28;20052;-81
2022/06/15 06:01:33;;;;;;;13.67;6.80;;;;;;;14.60;78.88;101754.63;5039423;28;20068;-82
2022/06/15 06:03:59;;;;;;;13.77;6.67;;;;;;;14.72;76.19;101748.53;5040291;28;20120;-83
2022/06/15 06:06:26;;;;;;;12.40;6.53;;;;;;;14.86;76.58;101741.94;5007951;28;20090;-82
2022/06/15 06:08:52;;;;;;;14.90;5.97;;;;;;;14.99;77.20;101747.34;5040125;28;20048;-82
2022/06/15 06:11:18;;;;;;;10.23;6.00;;;;;;;15.09;74.97;101746.03;5040364;28;20040;-83
2022/06/15 06:13:43;;;;;;;12.57;6.30;;;;;;;15.18;74.99;101750.16;5024261;28;20029;-82
2022/06/15 06:16:09;;;;;;;12.77;5.90;;;;;;;15.24;74.30;101741.06;5027549;28;20037;-82
2022/06/15 06:18:34;;;;;;;11.80;6.37;;;;;;;15.37;73.24;101748.34;5043767;28;20037;-82
2022/06/15 06:21:00;;;;;;;12.03;6.27;;;;;;;15.50;73.47;101752.84;5047813;28;22987;-82
2022/06/15 06:23:26;;;;;;;14.60;6.20;;;;;;;15.54;70.17;101759.53;5047638;28;21486;-83
2022/06/15 06:25:53;;;;;;;11.33;6.20;;;;;;;15.65;72.08;101750.63;5044461;28;20052;-83
2022/06/15 06:28:30;;;;;;;11.40;6.40;;;;;;;15.80;72.60;101747.59;5044373;28;20040;-82
2022/06/15 06:30:57;;;;;;;11.90;6.37;;;;;;;15.93;70.49;101749.34;5044086;28;20039;-82
2022/06/15 06:33:28;;;;;;;12.90;6.20;;;;;;;16.09;70.85;101747.06;5042792;28;21395;-82
2022/06/15 06:35:59;;;;;;;12.13;6.87;;;;;;;16.17;71.04;101752.28;5053571;28;20033;-83
2022/06/15 06:38:25;;;;;;;12.83;6.23;;;;;;;16.27;69.32;101746.25;5044362;28;20166;-82
2022/06/15 06:40:55;;;;;;;11.33;6.30;;;;;;;16.40;68.18;101756.19;5043526;28;20472;-83
2022/06/15 06:43:21;;;;;;;12.60;6.13;;;;;;;16.58;68.79;101760.81;5044302;28;20441;-82
2022/06/15 06:45:48;;;;;;;10.13;5.90;;;;;;;16.68;69.19;101758.38;5043291;28;20032;-82
2022/06/15 06:48:13;;;;;;;11.70;6.70;;;;;;;16.62;67.25;101742.88;5042396;28;20037;-81
2022/06/15 06:50:40;;;;;;;10.13;5.97;;;;;;;16.85;66.92;101770.38;5043430;28;21821;-83
2022/06/15 06:53:11;;;;;;;13.53;6.20;;;;;;;17.01;67.27;101766.19;5025846;28;20025;-83
2022/06/15 06:55:36;;;;;;;11.73;6.47;;;;;;;17.15;66.70;101766.00;5043289;28;20511;-83
2022/06/15 06:58:03;;;;;;;12.17;6.50;;;;;;;17.19;66.12;101762.53;5043343;28;20128;-82
2022/06/15 07:00:30;;;;;;;11.20;6.40;;;;;;;17.12;63.71;101766.44;5043264;28;20067;-82
2022/06/15 07:02:58;;;;;;;11.80;5.97;;;;;;;17.14;65.98;101764.31;5042798;28;20117;-82
2022/06/15 07:05:24;;;;;;;12.20;6.27;;;;;;;17.28;65.42;101765.75;5027828;28;21167;-81
2022/06/15 07:07:49;;;;;;;12.50;6.33;;;;;;;17.34;64.97;101764.84;5042722;28;20052;-82
2022/06/15 07:10:14;;;;;;;12.53;6.57;;;;;;;17.33;64.39;101765.91;5043802;28;20381;-82
2022/06/15 07:12:42;;;;;;;10.67;5.93;;;;;;;17.60;64.71;101765.47;5043329;28;20041;-82
2022/06/15 07:15:10;;;;;;;11.67;5.17;;;;;;;17.68;63.36;101767.88;5043721;28;20460;-82
2022/06/15 07:17:35;;;;;;;10.80;5.70;;;;;;;17.63;61.84;101762.25;5041511;28;20028;-82
2022/06/15 07:20:01;;;;;;;12.53;5.80;;;;;;;17.81;63.06;101780.50;5042406;28;20156;-82
2022/06/15 07:22:26;;;;;;;10.07;5.83;;;;;;;17.78;62.06;101778.25;5042999;28;20132;-83
2022/06/15 07:24:52;;;;;;;10.87;6.07;;;;;;;18.04;65.47;101782.44;5040916;28;20021;-82
2022/06/15 07:27:17;;;;;;;11.67;5.90;;;;;;;18.21;63.98;101765.28;5040997;28;20041;-82
2022/06/15 07:29:46;;;;;;;11.90;5.80;;;;;;;18.45;62.22;101781.69;5041826;28;20087;-81
2022/06/15 07:32:13;;;;;;;10.33;5.60;;;;;;;18.49;61.35;101780.94;5042550;28;20024;-83
2022/06/15 07:34:38;;;;;;;10.37;4.97;;;;;;;18.64;58.76;101785.91;5041172;28;20074;-82
2022/06/15 07:37:03;;;;;;;11.67;5.37;;;;;;;18.75;60.04;101769.66;5042994;28;20481;-82
2022/06/15 07:39:29;;;;;;;11.87;4.60;;;;;;;18.74;61.93;101777.06;5042528;28;20499;-82
2022/06/15 07:41:56;;;;;;;10.03;5.07;;;;;;;18.76;59.35;101782.31;5024285;28;20547;-81
2022/06/15 07:44:23;;;;;;;9.40;4.57;;;;;;;18.79;59.30;101771.66;5049039;28;20385;-82
2022/06/15 07:46:48;;;;;;;9.18;4.00;;;;;;;18.89;59.52;101782.88;5061698;28;20044;-83
2022/06/15 07:52:01;;;;;;;8.35;4.40;;;;;;;19.00;55.49;101783.91;5053663;28;20044;-83
2022/06/15 07:54:27;;;;;;;8.67;4.40;;;;;;;19.14;58.61;101784.44;5053264;28;20033;-82
2022/06/15 07:56:54;;;;;;;22.58;4.68;;;;;;;19.11;54.91;101784.09;5056367;28;20046;-82
2022/06/15 07:59:21;;;;;;;9.18;3.72;;;;;;;19.15;54.98;101777.06;5057452;28;20032;-82
2022/06/15 08:01:47;;;;;;;11.07;3.40;;;;;;;19.31;56.19;101772.63;5055856;28;20053;-83
2022/06/15 08:04:13;;;;;;;8.43;3.25;;;;;;;19.55;54.03;101779.66;5055377;28;20063;-80
2022/06/15 08:06:42;;;;;;;10.20;3.63;;;;;;;19.71;53.24;101786.22;5055057;28;20469;-82
2022/06/15 08:09:09;;;;;;;10.40;3.38;;;;;;;19.88;54.71;101779.91;5037004;28;20041;-83
2022/06/15 08:11:36;;;;;;;11.32;3.72;;;;;;;20.12;54.43;101782.47;5038046;28;20484;-83
2022/06/15 08:14:01;;;;;;;8.98;3.70;;;;;;;20.24;52.39;101780.44;5062590;28;20017;-81
2022/06/15 08:16:27;;;;;;;11.90;3.80;;;;;;;20.39;53.34;101777.88;5034702;28;20043;-83
2022/06/15 08:18:56;;;;;;;8.23;3.47;;;;;;;20.47;52.66;101781.31;5057837;28;20037;-83
2022/06/15 08:21:31;;;;;;;8.00;3.80;;;;;;;20.62;52.80;101775.97;5052232;28;20021;-82
2022/06/15 08:23:58;;;;;;;9.63;3.47;;;;;;;20.84;53.32;101777.91;5053767;28;20098;-79
2022/06/15 08:26:32;;;;;;;13.13;3.38;;;;;;;21.03;53.23;101776.47;5033237;28;20448;-81
2022/06/15 08:29:03;;;;;;;8.82;3.38;;;;;;;21.39;52.27;101782.31;5039215;28;20497;-81
2022/06/15 08:31:29;;;;;;;11.27;3.40;;;;;;;21.59;50.41;101778.09;5039941;28;20366;-81
2022/06/15 08:33:54;;;;;;;10.40;3.58;;;;;;;21.73;50.40;101775.72;5040999;28;20357;-82
2022/06/15 08:36:20;;;;;;;9.93;3.22;;;;;;;22.02;49.68;101773.44;5040440;28;20195;-82
2022/06/15 08:38:46;;;;;;;7.05;3.20;;;;;;;22.49;47.90;101780.03;5041644;28;20461;-80
2022/06/15 08:41:40;;;;;;;9.35;3.55;;;;;;;22.46;46.40;101777.81;5040240;28;21414;-80
2022/06/15 08:44:34;;;;;;;8.07;3.30;;;;;;;22.90;48.26;101782.97;5042004;28;20032;-82
2022/06/15 08:47:03;;;;;;;;;;;;;;;23.52;51.09;101787.75;5042042;28;20476;-82
2022/06/15 08:49:54;;;;;;;8.73;3.10;;;;;;;23.79;48.20;101775.59;5040950;28;21982;-82
2022/06/15 08:52:37;;;;;;;7.03;2.80;;;;;;;24.24;46.98;101779.38;5041162;28;20036;-82
2022/06/15 08:55:11;;;;;;;9.95;3.00;;;;;;;24.24;43.80;101784.91;5049522;28;20060;-82
2022/06/15 08:57:46;;;;;;;6.40;3.13;;;;;;;24.51;43.71;101790.06;5057447;28;20024;-80
2022/06/15 09:00:22;;;;;;;6.40;2.95;;;;;;;24.38;43.12;101787.91;5052724;28;20072;-81
2022/06/15 09:03:03;;;;;;;7.90;3.10;;;;;;;24.74;42.93;101791.38;5044775;28;20371;-82
2022/06/15 09:06:04;;;;;;;8.82;2.80;;;;;;;24.94;41.49;101784.06;5049800;28;20059;-81
2022/06/15 09:08:32;;;;;;;6.70;3.00;;;;;;;25.28;40.62;101781.34;5029037;28;20074;-82
2022/06/15 09:11:08;;;;;;;8.23;3.05;;;;;;;25.52;41.80;101774.25;5053284;28;20064;-83
2022/06/15 09:13:37;;;;;;;7.10;2.60;;;;;;;25.50;40.05;101777.31;5048441;28;20040;-82
2022/06/15 09:16:03;;;;;;;5.57;2.72;;;;;;;25.06;39.06;101773.47;5053661;28;20029;-82
2022/06/15 09:19:08;;;;;;;10.55;3.10;;;;;;;25.76;40.93;101779.84;5050471;28;20021;-81
2022/06/15 09:21:49;;;;;;;8.13;2.88;;;;;;;25.66;39.15;101780.75;5034574;28;20472;-84
2022/06/15 09:24:46;;;;;;;8.93;2.85;;;;;;;25.95;40.57;101775.22;5052332;28;20029;-80
2022/06/15 09:27:19;;;;;;;9.55;3.00;;;;;;;26.30;39.53;101775.13;5058404;28;20432;-83
2022/06/15 09:29:51;;;;;;;9.50;2.93;;;;;;;26.72;37.46;101783.78;5060120;28;20035;-80
2022/06/15 09:32:23;;;;;;;8.47;2.83;;;;;;;26.45;37.95;101774.09;5055391;28;20282;-80
2022/06/15 09:34:55;;;;;;;6.85;2.63;;;;;;;26.85;38.83;101777.50;5059639;28;20086;-79
2022/06/15 09:37:23;;;;;;;6.32;2.60;;;;;;;26.71;36.87;101782.97;5053283;28;20055;-84
2022/06/15 09:39:49;;;;;;;9.35;2.70;;;;;;;27.21;35.64;101776.13;5045522;28;20107;-83
2022/06/15 09:42:21;;;;;;;6.80;2.60;;;;;;;27.22;38.37;101780.56;5046621;28;20445;-79
2022/06/15 09:45:15;;;;;;;7.07;2.50;;;;;;;27.82;39.65;101779.84;5047095;28;20029;-80
2022/06/15 09:47:55;;;;;;;7.32;2.80;;;;;;;27.68;36.96;101765.09;5072739;28;20476;-81
2022/06/15 09:50:20;;;;;;;8.55;2.55;;;;;;;27.87;36.30;101776.16;5033965;28;20029;-80
2022/06/15 09:52:55;;;;;;;6.53;2.50;;;;;;;28.08;35.69;101774.66;5033905;28;20103;-79
2022/06/15 09:55:35;;;;;;;7.32;2.80;;;;;;;27.74;36.90;101777.75;5033815;28;20022;-80
2022/06/15 09:58:01;;;;;;;6.00;2.50;;;;;;;27.36;37.14;101773.13;5033934;28;20025;-81
2022/06/15 10:00:28;;;;;;;4.78;2.50;;;;;;;27.60;36.98;101772.16;5042099;28;20033;-80
2022/06/15 10:02:59;;;;;;;5.93;2.80;;;;;;;27.63;36.18;101765.97;5052132;28;20029;-81
2022/06/15 10:05:36;;;;;;;7.38;2.85;;;;;;;28.18;34.15;101778.34;5053304;28;20057;-81
2022/06/15 10:08:08;;;;;;;8.55;2.90;;;;;;;28.02;35.31;101764.72;5061426;28;20041;-80
2022/06/15 10:10:41;;;;;;;7.47;3.10;;;;;;;27.67;32.68;101775.38;5053939;28;20396;-81
2022/06/15 10:13:19;;;;;;;6.30;2.65;;;;;;;28.22;36.06;101763.50;5053169;28;20032;-81
2022/06/15 10:15:44;;;;;;;8.63;3.00;;;;;;;28.40;35.63;101766.50;5052285;28;20366;-81
2022/06/15 10:18:17;;;;;;;5.97;2.63;;;;;;;28.43;34.69;101766.69;5067182;28;20059;-81
2022/06/15 10:20:55;;;;;;;8.65;3.20;;;;;;;28.50;36.23;101757.06;5054046;28;20060;-81
2022/06/15 10:23:27;;;;;;;11.40;3.20;;;;;;;27.08;35.98;101764.63;5053636;28;20096;-81
2022/06/15 10:25:55;;;;;;;7.05;3.10;;;;;;;27.10;36.56;101747.63;5052729;28;20074;-81
2022/06/15 10:28:30;;;;;;;9.45;2.92;;;;;;;27.64;35.87;101759.28;5051391;28;20067;-81
2022/06/15 10:31:00;;;;;;;6.82;2.67;;;;;;;27.94;36.30;101757.88;5061531;28;20098;-81
2022/06/15 10:33:40;;;;;;;6.88;2.50;;;;;;;28.29;35.74;101763.09;5052518;28;20064;-81
2022/06/15 10:36:22;;;;;;;6.75;2.60;;;;;;;28.37;37.95;101759.56;5054402;28;20033;-81
2022/06/15 10:39:18;;;;;;;7.28;2.60;;;;;;;28.43;37.05;101755.53;5069148;28;20028;-81
2022/06/15 10:41:47;;;;;;;6.78;2.78;;;;;;;28.20;32.44;101759.38;5047802;28;20057;-81
2022/06/15 10:44:34;;;;;;;7.07;2.75;;;;;;;28.11;34.44;101743.38;5041839;28;20055;-82
2022/06/15 10:47:18;;;;;;;6.75;2.70;;;;;;;28.52;37.49;101750.06;5052512;28;20041;-81
2022/06/15 10:49:48;;;;;;;8.63;2.80;;;;;;;28.06;33.98;101742.66;5051254;28;20370;-81
2022/06/15 10:52:26;;;;;;;8.15;2.85;;;;;;;27.40;35.75;101762.22;5051182;28;20029;-80
2022/06/15 11:03:37;;;;;;;7.22;2.90;;;;;;;28.76;34.65;101746.19;5062046;28;20537;-81
2022/06/15 11:06:03;;;;;;;9.38;2.90;;;;;;;28.74;34.67;101745.72;5054862;28;20028;-81
2022/06/15 11:08:32;;;;;;;8.90;2.95;;;;;;;28.78;31.03;101747.53;5059095;28;20045;-83
2022/06/15 11:11:24;;;;;;;5.35;2.90;;;;;;;29.11;32.22;101738.94;5053242;28;20381;-81
2022/06/15 11:13:57;;;;;;;7.05;2.80;;;;;;;28.70;33.51;101737.13;5044229;28;20052;-81
2022/06/15 11:19:22;;;;;;;7.75;2.95;;;;;;;27.94;34.92;101734.78;5056756;28;20435;-81
2022/06/15 11:21:52;;;;;;;6.68;2.80;;;;;;;28.24;35.36;101727.78;5038907;28;20472;-82
2022/06/15 11:24:57;;;;;;;8.18;3.00;;;;;;;28.63;36.43;101726.41;5055837;28;20032;-82
2022/06/15 11:27:29;;;;;;;5.85;3.03;;;;;;;27.99;36.16;101726.34;5054817;28;20033;-81
2022/06/15 11:30:12;;;;;;;8.77;3.55;;;;;;;28.77;34.75;101729.16;5031375;28;20063;-82
2022/06/15 11:32:44;;;;;;;8.48;3.25;;;;;;;27.83;35.88;101725.81;5041540;28;20116;-82
2022/06/15 11:35:12;;;;;;;7.88;3.53;;;;;;;27.56;33.97;101744.09;5041462;28;20040;-82
2022/06/15 11:38:04;;;;;;;8.20;3.03;;;;;;;28.11;35.99;101731.41;5042405;28;20035;-83
2022/06/15 11:40:57;;;;;;;6.32;3.03;;;;;;;27.79;36.17;101720.03;5042148;28;20040;-82
2022/06/15 11:43:29;;;;;;;6.65;2.80;;;;;;;27.74;33.76;101722.06;5042989;28;20045;-84
2022/06/15 11:46:21;;;;;;;5.30;2.60;;;;;;;28.53;37.04;101726.63;5043225;28;20037;-82
2022/06/15 11:48:53;;;;;;;5.60;2.58;;;;;;;28.61;34.58;101741.75;5042614;28;20041;-83
2022/06/15 11:51:26;;;;;;;6.03;2.60;;;;;;;28.69;36.79;101737.44;5042363;28;20032;-82